Current | Forecast
Updated: 1:00 PM +07 on May 01, 2017
Observed at Omsk, Russia
Temperature 52°F
Humidity 33%
Dew Point 23°F
Wind NW at 22 mph
Pressure 30.21 in (Steady)
Conditions Mostly Cloudy
Visibility 6.2 miles
UV 3 out of 16
Clouds Mostly Cloudy (BKN) : 3300 ft
Yesterday's Maximum 48°F
Yesterday's Minimum 34°F approx.
Yesterday's Heating Degree Days 24 approx.
Sunrise5:30 AM +06
Sunset8:43 PM +06
Moon Rise9:43 AM +06
Moon Set1:13 AM +06
Moon PhaseMoon Phase
Waxing Crescent
Raw METARMETAR UNOO 010600Z 31010MPS 9999 BKN033CB 11/M05 Q1023 R25/CLRD60 NOSIG RMK QFE759


Monday
. High: 62° F.
Tuesday
. High: 68° F.
Wednesday
. High: 71° F.
Thursday
. High: 78° F.
Friday
. High: 68° F.
Saturday
. High: 64° F.
Sunday
. High: 55° F.
Monday
. High: 57° F.

Units: English | Metric

Find the Weather for any City, State or Zipcode, or Country:

U.S. State List | Severe Weather | Tropical Storms | Ski Conditions
United States | Canada | Central America | South America | Asia | Europe | Australia | Africa | Islands

Weather Underground

© Copyright 2017
The Weather Company, LLC